createdAt,value
2018-10-16T00:00:36.366Z,101283.67
2018-10-16T00:01:40.613Z,101283.67
2018-10-16T00:02:45.428Z,101283.67
2018-10-16T00:03:49.543Z,101287.20
2018-10-16T00:04:53.678Z,101283.32
2018-10-16T00:05:57.686Z,101288.33
2018-10-16T00:07:01.760Z,101290.70
2018-10-16T00:08:05.817Z,101288.02
2018-10-16T00:09:10.594Z,101291.69
2018-10-16T00:10:19.297Z,101291.33
2018-10-16T00:11:23.327Z,101294.01
2018-10-16T00:12:27.424Z,101294.53
2018-10-16T00:13:31.529Z,101290.16
2018-10-16T00:14:35.862Z,101291.00
2018-10-16T00:15:39.885Z,101299.69
2018-10-16T00:16:44.118Z,101294.32
2018-10-16T00:17:48.229Z,101300.53
2018-10-16T00:18:52.382Z,101297.00
2018-10-16T00:19:56.551Z,101300.17
2018-10-16T00:21:00.626Z,101299.36
2018-10-16T00:22:04.784Z,101299.50
2018-10-16T00:23:10.021Z,101303.03
2018-10-16T00:24:14.112Z,101297.48
2018-10-16T00:25:18.415Z,101308.34
2018-10-16T00:26:22.523Z,101297.27
2018-10-16T00:27:26.658Z,101305.48
2018-10-16T00:28:30.860Z,101311.34
2018-10-16T00:29:34.859Z,101307.48
2018-10-16T00:30:39.487Z,101309.31
2018-10-16T00:31:43.634Z,101311.64
2018-10-16T00:32:47.817Z,101311.64
2018-10-16T00:33:51.849Z,101316.66
2018-10-16T00:34:56.031Z,101309.45
2018-10-16T00:36:00.123Z,101307.76
2018-10-16T00:37:04.347Z,101311.78
2018-10-16T00:38:08.490Z,101311.29
2018-10-16T00:39:13.871Z,101310.97
2018-10-16T00:40:17.988Z,101313.29
2018-10-16T00:41:22.008Z,101308.91
2018-10-16T00:42:26.084Z,101316.96
2018-10-16T00:43:30.321Z,101310.92
2018-10-16T00:44:34.421Z,101313.59
2018-10-16T00:45:38.882Z,101316.28
2018-10-16T00:46:42.925Z,101315.92
2018-10-16T00:47:47.032Z,101319.95
2018-10-16T00:48:51.371Z,101317.43
2018-10-16T00:49:55.438Z,101316.59
2018-10-16T00:50:59.545Z,101314.89
2018-10-16T00:52:03.680Z,101322.08
2018-10-16T00:53:07.743Z,101322.25
2018-10-16T00:54:11.775Z,101325.78
2018-10-16T00:55:15.968Z,101327.61
2018-10-16T00:56:19.988Z,101325.42
2018-10-16T00:57:24.092Z,101332.13
2018-10-16T00:58:28.256Z,101325.92
2018-10-16T00:59:32.287Z,101323.23
2018-10-16T01:00:36.467Z,101329.45
2018-10-16T01:01:40.596Z,101330.92
2018-10-16T01:02:44.667Z,101330.92
2018-10-16T01:03:48.738Z,101330.92
2018-10-16T01:04:52.829Z,101333.11
2018-10-16T01:05:56.927Z,101333.77
2018-10-16T01:07:00.971Z,101331.94
2018-10-16T01:08:05.171Z,101336.95
2018-10-16T01:09:11.492Z,101336.45
2018-10-16T01:10:15.528Z,101330.73
2018-10-16T01:11:19.911Z,101326.72
2018-10-16T01:12:24.060Z,101336.59
2018-10-16T01:13:28.353Z,101337.08
2018-10-16T01:14:32.458Z,101336.27
2018-10-16T01:15:37.121Z,101337.61
2018-10-16T01:16:41.081Z,101338.59
2018-10-16T01:17:45.187Z,101339.93
2018-10-16T01:18:49.485Z,101337.74
2018-10-16T01:19:53.654Z,101340.42
2018-10-16T01:20:57.783Z,101339.58
2018-10-16T01:22:01.851Z,101342.26
2018-10-16T01:23:05.911Z,101342.26
2018-10-16T01:24:10.072Z,101339.74
2018-10-16T01:25:14.412Z,101336.70
2018-10-16T01:26:18.476Z,101342.91
2018-10-16T01:27:22.547Z,101342.06
2018-10-16T01:28:26.602Z,101342.20
2018-10-16T01:29:30.664Z,101341.03
2018-10-16T01:30:34.785Z,101341.03
2018-10-16T01:31:39.614Z,101349.92
2018-10-16T01:32:43.668Z,101344.69
2018-10-16T01:33:47.709Z,101347.86
2018-10-16T01:34:51.817Z,101347.86
2018-10-16T01:35:55.876Z,101356.27
2018-10-16T01:36:59.932Z,101351.56
2018-10-16T01:38:04.108Z,101355.58
2018-10-16T01:39:08.256Z,101351.70
2018-10-16T01:40:13.466Z,101350.84
2018-10-16T01:41:17.552Z,101349.51
2018-10-16T01:42:21.767Z,101343.16
2018-10-16T01:43:26.080Z,101347.67
2018-10-16T01:44:30.140Z,101346.83
2018-10-16T01:45:34.324Z,101342.31
2018-10-16T01:46:38.321Z,101345.48
2018-10-16T01:47:42.475Z,101345.98
2018-10-16T01:48:46.672Z,101346.34
2018-10-16T01:49:51.027Z,101343.82
2018-10-16T01:50:55.403Z,101341.63
2018-10-16T01:51:59.544Z,101339.44
2018-10-16T01:53:03.617Z,101342.97
2018-10-16T01:54:07.643Z,101340.39
2018-10-16T01:55:11.701Z,101341.73
2018-10-16T01:56:15.868Z,101345.30
2018-10-16T01:57:20.231Z,101341.38
2018-10-16T01:58:24.306Z,101344.06
2018-10-16T01:59:28.420Z,101340.70
2018-10-16T02:00:32.659Z,101337.52
2018-10-16T02:01:36.757Z,101339.72
2018-10-16T02:02:40.825Z,101338.02
2018-10-16T02:03:44.824Z,101339.00
2018-10-16T02:04:48.907Z,101338.18
2018-10-16T02:05:53.046Z,101340.02
2018-10-16T02:06:57.130Z,101335.63
2018-10-16T02:08:01.190Z,101339.66
2018-10-16T02:09:08.114Z,101338.97
2018-10-16T02:10:12.376Z,101340.80
2018-10-16T02:11:16.480Z,101351.17
2018-10-16T02:12:20.556Z,101346.95
2018-10-16T02:13:24.643Z,101349.28
2018-10-16T02:14:28.949Z,101352.94
2018-10-16T02:15:33.093Z,101350.78
2018-10-16T02:16:37.499Z,101355.13
2018-10-16T02:17:41.577Z,101350.42
2018-10-16T02:18:45.718Z,101350.92
2018-10-16T02:19:49.849Z,101350.06
2018-10-16T02:20:53.949Z,101350.56
2018-10-16T02:21:58.060Z,101346.54
2018-10-16T02:23:02.117Z,101350.23
2018-10-16T02:24:06.345Z,101347.55
2018-10-16T02:25:11.187Z,101352.55
2018-10-16T02:26:15.372Z,101351.22
2018-10-16T02:27:19.439Z,101353.05
2018-10-16T02:28:23.539Z,101357.06
2018-10-16T02:29:27.835Z,101369.61
2018-10-16T02:30:31.847Z,101359.39
2018-10-16T02:31:36.666Z,101358.05
2018-10-16T02:32:40.870Z,101361.25
2018-10-16T02:33:45.189Z,101358.70
2018-10-16T02:34:49.312Z,101358.70
2018-10-16T02:35:53.445Z,101356.52
2018-10-16T02:36:57.586Z,101358.02
2018-10-16T02:38:01.652Z,101364.55
2018-10-16T02:39:07.863Z,101357.17
2018-10-16T02:40:11.981Z,101363.87
2018-10-16T02:41:16.003Z,101363.15
2018-10-16T02:42:20.257Z,101361.81
2018-10-16T02:43:24.424Z,101362.83
2018-10-16T02:44:28.912Z,101364.16
2018-10-16T02:45:32.969Z,101363.31
2018-10-16T02:46:37.388Z,101364.30
2018-10-16T02:47:41.476Z,101362.11
2018-10-16T02:48:45.841Z,101357.05
2018-10-16T02:49:50.043Z,101356.06
2018-10-16T02:50:54.092Z,101361.06
2018-10-16T02:51:58.329Z,101359.40
2018-10-16T02:53:02.696Z,101363.91
2018-10-16T02:54:07.712Z,101366.94
2018-10-16T02:55:11.968Z,101364.27
2018-10-16T02:56:16.200Z,101371.09
2018-10-16T02:57:20.376Z,101369.75
2018-10-16T02:58:24.432Z,101370.11
2018-10-16T02:59:29.109Z,101368.41
2018-10-16T03:00:33.272Z,101369.75
2018-10-16T03:01:37.714Z,101373.77
2018-10-16T03:02:41.850Z,101370.11
2018-10-16T03:03:46.019Z,101371.45
2018-10-16T03:04:50.184Z,101368.77
2018-10-16T03:05:54.296Z,101370.60
2018-10-16T03:06:58.343Z,101368.28
2018-10-16T03:08:02.433Z,101368.28
2018-10-16T03:09:07.934Z,101370.60
2018-10-16T03:10:12.052Z,101367.92
2018-10-16T03:11:16.160Z,101370.60
2018-10-16T03:12:20.246Z,101371.45
2018-10-16T03:13:24.400Z,101374.62
2018-10-16T03:14:28.569Z,101377.30
2018-10-16T03:15:33.236Z,101374.98
2018-10-16T03:16:37.297Z,101376.32
2018-10-16T03:17:41.591Z,101374.98
2018-10-16T03:18:45.672Z,101374.12
2018-10-16T03:19:49.970Z,101377.66
2018-10-16T03:20:54.055Z,101383.70
2018-10-16T03:21:58.194Z,101378.34
2018-10-16T03:23:02.164Z,101367.62
2018-10-16T03:24:07.284Z,101377.50
2018-10-16T03:25:12.606Z,101377.00
2018-10-16T03:26:16.874Z,101372.63
2018-10-16T03:27:20.907Z,101380.17
2018-10-16T03:28:25.053Z,101378.48
2018-10-16T03:29:29.093Z,101378.84
2018-10-16T03:30:33.227Z,101378.15
2018-10-16T03:31:37.441Z,101379.98
2018-10-16T03:32:41.826Z,101382.17
2018-10-16T03:33:46.118Z,101383.51
2018-10-16T03:34:50.243Z,101385.53
2018-10-16T03:35:54.733Z,101382.50
2018-10-16T03:36:58.806Z,101385.17
2018-10-16T03:38:02.959Z,101386.74
2018-10-16T03:39:09.085Z,101391.94
2018-10-16T03:40:13.411Z,101386.58
2018-10-16T03:41:17.537Z,101386.45
2018-10-16T03:42:21.536Z,101383.25
2018-10-16T03:43:25.729Z,101389.45
2018-10-16T03:44:29.817Z,101385.92
2018-10-16T03:45:33.868Z,101389.32
2018-10-16T03:46:38.011Z,101390.30
2018-10-16T03:47:42.135Z,101392.36
2018-10-16T03:48:46.118Z,101391.52
2018-10-16T03:49:50.369Z,101390.66
2018-10-16T03:50:54.473Z,101390.01
2018-10-16T03:51:58.804Z,101389.52
2018-10-16T03:53:03.006Z,101389.16
2018-10-16T03:54:07.695Z,101391.02
2018-10-16T03:55:11.764Z,101394.03
2018-10-16T03:56:15.901Z,101392.20
2018-10-16T03:57:20.078Z,101395.36
2018-10-16T03:58:24.043Z,101394.38
2018-10-16T03:59:28.067Z,101396.58
2018-10-16T04:00:32.200Z,101395.72
2018-10-16T04:01:36.179Z,101394.38
2018-10-16T04:02:40.541Z,101395.23
2018-10-16T04:03:44.536Z,101389.52
2018-10-16T04:04:48.620Z,101395.72
2018-10-16T04:05:52.667Z,101399.25
2018-10-16T04:06:56.818Z,101396.41
2018-10-16T04:08:00.965Z,101395.23
2018-10-16T04:09:06.630Z,101394.74
2018-10-16T04:10:10.778Z,101394.74
2018-10-16T04:11:14.834Z,101403.11
2018-10-16T04:12:18.892Z,101400.10
2018-10-16T04:13:23.125Z,101404.94
2018-10-16T04:14:27.615Z,101399.45
2018-10-16T04:15:31.677Z,101403.11
2018-10-16T04:16:35.818Z,101403.83
2018-10-16T04:17:40.800Z,101404.80
2018-10-16T04:18:44.868Z,101402.13
2018-10-16T04:19:49.021Z,101406.15
2018-10-16T04:20:53.149Z,101404.45
2018-10-16T04:21:57.310Z,101412.00
2018-10-16T04:23:01.440Z,101414.19
2018-10-16T04:24:05.943Z,101412.84
2018-10-16T04:25:10.168Z,101411.15
2018-10-16T04:26:14.293Z,101416.18
2018-10-16T04:27:18.415Z,101412.66
2018-10-16T04:28:22.688Z,101414.31
2018-10-16T04:29:26.987Z,101417.52
2018-10-16T04:30:31.090Z,101416.80
2018-10-16T04:31:35.111Z,101414.13
2018-10-16T04:32:39.511Z,101414.28
2018-10-16T04:33:43.811Z,101417.09
2018-10-16T04:34:47.912Z,101411.91
2018-10-16T04:35:51.970Z,101417.39
2018-10-16T04:36:56.152Z,101411.18
2018-10-16T04:38:00.212Z,101415.00
2018-10-16T04:39:06.305Z,101414.64
2018-10-16T04:40:10.335Z,101417.00
2018-10-16T04:41:14.424Z,101414.94
2018-10-16T04:42:18.464Z,101414.73
2018-10-16T04:43:22.524Z,101415.72
2018-10-16T04:44:26.623Z,101414.91
2018-10-16T04:45:30.822Z,101421.23
2018-10-16T04:46:34.907Z,101416.50
2018-10-16T04:47:39.449Z,101422.38
2018-10-16T04:48:43.603Z,101418.49
2018-10-16T04:49:47.648Z,101422.51
2018-10-16T04:50:51.775Z,101414.64
2018-10-16T04:51:55.969Z,101424.02
2018-10-16T04:52:59.980Z,101426.81
2018-10-16T04:54:04.363Z,101414.08
2018-10-16T04:55:08.702Z,101421.75
2018-10-16T04:56:12.771Z,101426.75
2018-10-16T04:57:16.879Z,101421.55
2018-10-16T04:58:20.896Z,101423.87
2018-10-16T04:59:25.013Z,101424.00
2018-10-16T05:00:29.108Z,101421.84
2018-10-16T05:01:33.272Z,101422.13
2018-10-16T05:02:38.458Z,101421.28
2018-10-16T05:03:42.563Z,101425.79
2018-10-16T05:04:46.665Z,101425.42
2018-10-16T05:05:51.040Z,101424.58
2018-10-16T05:06:55.151Z,101428.59
2018-10-16T05:07:59.954Z,101429.94
2018-10-16T05:09:05.167Z,101432.61
2018-10-16T05:10:09.255Z,101430.95
2018-10-16T05:11:13.338Z,101434.59
2018-10-16T05:12:17.732Z,101431.44
2018-10-16T05:13:21.898Z,101434.59
2018-10-16T05:14:26.802Z,101440.45
2018-10-16T05:15:32.077Z,101434.59
2018-10-16T05:16:36.111Z,101438.25
2018-10-16T05:17:40.226Z,101439.11
2018-10-16T05:18:44.329Z,101440.45
2018-10-16T05:19:48.512Z,101440.94
2018-10-16T05:20:52.620Z,101435.25
2018-10-16T05:21:56.675Z,101434.73
2018-10-16T05:23:01.104Z,101437.41
2018-10-16T05:24:05.806Z,101438.25
2018-10-16T05:25:09.875Z,101440.08
2018-10-16T05:26:14.010Z,101437.08
2018-10-16T05:27:18.109Z,101435.25
2018-10-16T05:28:22.165Z,101433.75
2018-10-16T05:29:26.310Z,101433.39
2018-10-16T05:30:30.399Z,101442.27
2018-10-16T05:31:34.914Z,101437.92
2018-10-16T05:32:39.081Z,101434.73
2018-10-16T05:33:43.227Z,101432.57
2018-10-16T05:34:47.356Z,101436.23
2018-10-16T05:35:51.576Z,101438.25
2018-10-16T05:36:55.878Z,101439.75
2018-10-16T05:38:00.572Z,101439.27
2018-10-16T05:39:06.496Z,101440.94
2018-10-16T05:40:11.317Z,101444.95
2018-10-16T05:41:15.522Z,101444.63
2018-10-16T05:42:19.596Z,101438.42
2018-10-16T05:43:23.792Z,101440.61
2018-10-16T05:44:27.900Z,101447.30
2018-10-16T05:45:33.793Z,101440.45
2018-10-16T05:46:37.914Z,101444.95
2018-10-16T05:47:43.510Z,101444.95
2018-10-16T05:48:47.571Z,101442.77
2018-10-16T05:49:51.603Z,101446.78
2018-10-16T05:50:55.703Z,101445.44
2018-10-16T05:51:59.806Z,101448.48
2018-10-16T05:53:03.938Z,101448.48
2018-10-16T05:54:08.218Z,101452.86
2018-10-16T05:55:12.324Z,101451.52
2018-10-16T05:56:16.533Z,101451.84
2018-10-16T05:57:20.778Z,101449.69
2018-10-16T05:58:25.044Z,101452.70
2018-10-16T05:59:29.699Z,101447.70
2018-10-16T06:00:43.106Z,101454.40
2018-10-16T06:01:47.188Z,101452.56
2018-10-16T06:02:51.323Z,101456.09
2018-10-16T06:03:55.505Z,101456.09
2018-10-16T06:04:59.658Z,101456.42
2018-10-16T06:06:03.759Z,101460.44
2018-10-16T06:07:08.212Z,101455.94
2018-10-16T06:08:12.478Z,101464.46
2018-10-16T06:09:16.645Z,101465.47
2018-10-16T06:10:20.867Z,101461.45
2018-10-16T06:11:25.305Z,101467.14
2018-10-16T06:12:29.428Z,101458.13
2018-10-16T06:13:33.571Z,101464.33
2018-10-16T06:14:37.723Z,101467.50
2018-10-16T06:15:41.881Z,101473.91
2018-10-16T06:16:45.983Z,101479.27
2018-10-16T06:17:50.163Z,101475.25
2018-10-16T06:18:54.327Z,101475.61
2018-10-16T06:19:58.440Z,101485.34
2018-10-16T06:21:02.461Z,101478.65
2018-10-16T06:22:06.563Z,101482.99
2018-10-16T06:23:10.823Z,101482.99
2018-10-16T06:24:14.969Z,101483.48
2018-10-16T06:25:19.504Z,101487.37
2018-10-16T06:26:23.683Z,101492.23
2018-10-16T06:27:28.295Z,101491.88
2018-10-16T06:28:32.417Z,101493.22
2018-10-16T06:29:36.729Z,101497.23
2018-10-16T06:30:40.891Z,101496.18
2018-10-16T06:31:45.007Z,101490.83
2018-10-16T06:32:49.210Z,101488.64
2018-10-16T06:33:53.456Z,101494.97
2018-10-16T06:34:57.598Z,101489.77
2018-10-16T06:36:01.773Z,101486.73
2018-10-16T06:37:06.105Z,101487.59
2018-10-16T06:38:10.343Z,101494.28
2018-10-16T06:39:14.397Z,101497.94
2018-10-16T06:40:18.566Z,101495.26
2018-10-16T06:41:23.753Z,101495.26
2018-10-16T06:42:29.112Z,101493.10
2018-10-16T06:43:33.303Z,101500.28
2018-10-16T06:44:37.975Z,101495.05
2018-10-16T06:45:43.531Z,101501.27
2018-10-16T06:46:47.678Z,101500.05
2018-10-16T06:47:52.757Z,101496.55
2018-10-16T06:48:57.687Z,101497.89
2018-10-16T06:50:02.687Z,101494.36
2018-10-16T06:51:08.794Z,101499.36
2018-10-16T06:52:14.508Z,101499.36
2018-10-16T06:53:22.028Z,101502.52
2018-10-16T06:54:26.327Z,101499.52
2018-10-16T06:55:31.465Z,101504.02
2018-10-16T06:56:38.138Z,101501.83
2018-10-16T06:57:43.146Z,101502.80
2018-10-16T06:58:48.942Z,101503.66
2018-10-16T06:59:53.124Z,101504.30
2018-10-16T07:00:59.365Z,101500.78
2018-10-16T07:02:03.581Z,101502.11
2018-10-16T07:03:07.949Z,101503.45
2018-10-16T07:04:12.108Z,101508.32
2018-10-16T07:05:16.235Z,101504.80
2018-10-16T07:06:20.391Z,101511.81
2018-10-16T07:07:24.509Z,101510.48
2018-10-16T07:08:28.575Z,101510.84
2018-10-16T07:09:32.719Z,101506.83
2018-10-16T07:10:37.175Z,101510.84
2018-10-16T07:11:41.514Z,101508.52
2018-10-16T07:12:45.584Z,101519.59
2018-10-16T07:13:49.824Z,101509.70
2018-10-16T07:14:53.955Z,101511.89
2018-10-16T07:15:58.052Z,101511.89
2018-10-16T07:17:02.243Z,101513.44
2018-10-16T07:18:06.618Z,101516.97
2018-10-16T07:19:11.116Z,101513.67
2018-10-16T07:20:15.967Z,101512.34
2018-10-16T07:21:20.203Z,101512.66
2018-10-16T07:22:24.652Z,101514.73
2018-10-16T07:23:28.720Z,101519.92
2018-10-16T07:24:32.767Z,101514.44
2018-10-16T07:25:37.773Z,101516.47
2018-10-16T07:26:42.103Z,101519.52
2018-10-16T07:27:46.209Z,101519.35
2018-10-16T07:28:50.341Z,101516.19
2018-10-16T07:29:54.563Z,101516.42
2018-10-16T07:30:58.643Z,101520.28
2018-10-16T07:32:03.391Z,101513.59
2018-10-16T07:33:07.591Z,101517.47
2018-10-16T07:34:11.892Z,101522.55
2018-10-16T07:35:16.466Z,101518.04
2018-10-16T07:36:20.685Z,101528.11
2018-10-16T07:37:24.792Z,101526.28
2018-10-16T07:38:28.978Z,101526.11
2018-10-16T07:39:33.111Z,101523.67
2018-10-16T07:40:37.351Z,101530.21
2018-10-16T07:41:42.069Z,101524.20
2018-10-16T07:42:46.234Z,101530.28
2018-10-16T07:43:50.504Z,101521.59
2018-10-16T07:44:54.615Z,101529.50
2018-10-16T07:45:58.719Z,101526.34
2018-10-16T07:47:02.780Z,101523.00
2018-10-16T07:48:06.944Z,101525.03
2018-10-16T07:49:10.920Z,101527.72
2018-10-16T07:50:15.198Z,101528.44
2018-10-16T07:51:19.345Z,101526.94
2018-10-16T07:52:23.446Z,101531.16
2018-10-16T07:53:27.599Z,101531.16
2018-10-16T07:54:31.925Z,101529.20
2018-10-16T07:55:36.480Z,101528.22
2018-10-16T07:56:40.687Z,101524.53
2018-10-16T07:57:44.852Z,101526.59
2018-10-16T07:58:48.988Z,101529.59
2018-10-16T07:59:53.104Z,101520.08
2018-10-16T08:00:57.205Z,101525.28
2018-10-16T08:02:01.328Z,101521.98
2018-10-16T08:03:06.008Z,101526.33
2018-10-16T08:04:10.205Z,101525.74
2018-10-16T08:05:14.424Z,101523.75
2018-10-16T08:06:18.740Z,101532.52
2018-10-16T08:07:22.789Z,101527.48
2018-10-16T08:08:26.866Z,101525.03
2018-10-16T08:09:31.060Z,101532.42
2018-10-16T08:10:35.147Z,101524.73
2018-10-16T08:11:43.675Z,101531.77
2018-10-16T08:12:47.792Z,101529.31
2018-10-16T08:13:51.953Z,101530.98
2018-10-16T08:14:56.032Z,101523.79
2018-10-16T08:16:00.139Z,101529.02
2018-10-16T08:17:04.636Z,101531.05
2018-10-16T08:18:08.776Z,101531.73
2018-10-16T08:19:13.201Z,101530.75
2018-10-16T08:20:17.983Z,101540.83
2018-10-16T08:21:22.059Z,101542.89
2018-10-16T08:22:26.107Z,101534.34
2018-10-16T08:23:30.284Z,101539.91
2018-10-16T08:24:34.914Z,101542.23
2018-10-16T08:25:39.106Z,101543.99
2018-10-16T08:26:43.313Z,101541.64
2018-10-16T08:27:47.393Z,101540.17
2018-10-16T08:28:51.634Z,101539.02
2018-10-16T08:29:55.692Z,101541.08
2018-10-16T08:30:59.808Z,101542.26
2018-10-16T08:32:03.852Z,101545.98
2018-10-16T08:33:07.965Z,101544.02
2018-10-16T08:34:12.632Z,101543.85
2018-10-16T08:35:16.880Z,101542.87
2018-10-16T08:36:21.066Z,101546.23
2018-10-16T08:38:06.364Z,101541.59
2018-10-16T08:39:17.118Z,101540.93
2018-10-16T08:40:21.498Z,101537.59
2018-10-16T08:41:35.616Z,101537.59
2018-10-16T08:43:56.599Z,101542.83
2018-10-16T08:45:13.887Z,101541.48
2018-10-16T08:46:29.826Z,101536.61
2018-10-16T08:47:45.557Z,101543.31
2018-10-16T08:49:01.665Z,101537.78
2018-10-16T08:50:17.008Z,101540.99
2018-10-16T08:51:47.409Z,101535.95
2018-10-16T08:52:51.611Z,101538.63
2018-10-16T08:53:56.016Z,101538.01
2018-10-16T08:55:00.216Z,101535.65
2018-10-16T08:56:04.848Z,101536.01
2018-10-16T08:57:08.976Z,101530.51
2018-10-16T08:58:13.168Z,101540.09
2018-10-16T08:59:17.245Z,101537.11
2018-10-16T09:00:21.347Z,101534.26
2018-10-16T09:01:25.478Z,101537.66
2018-10-16T09:02:29.522Z,101540.17
2018-10-16T09:03:33.718Z,101547.43
2018-10-16T09:04:37.834Z,101544.25
2018-10-16T09:05:41.939Z,101541.63
2018-10-16T09:06:46.080Z,101544.14
2018-10-16T09:07:50.204Z,101548.52
2018-10-16T09:08:54.493Z,101544.86
2018-10-16T09:09:58.542Z,101544.20
2018-10-16T09:11:02.664Z,101542.23
2018-10-16T09:12:06.843Z,101541.20
2018-10-16T09:13:11.011Z,101540.94
2018-10-16T09:14:15.646Z,101542.14
2018-10-16T09:15:19.965Z,101540.63
2018-10-16T09:16:24.509Z,101545.73
2018-10-16T09:17:28.576Z,101539.70
2018-10-16T09:18:32.592Z,101532.82
2018-10-16T09:19:36.752Z,101534.38
2018-10-16T09:20:40.890Z,101532.37
2018-10-16T09:21:45.155Z,101533.58
2018-10-16T09:22:49.252Z,101535.61
2018-10-16T09:23:53.385Z,101538.48
2018-10-16T09:24:57.520Z,101534.45
2018-10-16T09:26:01.563Z,101538.34
2018-10-16T09:27:06.063Z,101532.30
2018-10-16T09:28:10.216Z,101534.00
2018-10-16T09:29:14.340Z,101532.84
2018-10-16T09:30:18.476Z,101530.34
2018-10-16T09:31:22.574Z,101531.05
2018-10-16T09:32:26.615Z,101530.75
2018-10-16T09:33:30.649Z,101537.65
2018-10-16T09:34:34.779Z,101534.66
2018-10-16T09:35:38.826Z,101542.41
2018-10-16T09:36:42.903Z,101540.92
2018-10-16T09:37:47.090Z,101542.28
2018-10-16T09:38:51.008Z,101540.30
2018-10-16T09:39:55.125Z,101538.29
2018-10-16T09:40:59.196Z,101543.35
2018-10-16T09:42:03.275Z,101536.32
2018-10-16T09:43:08.165Z,101542.73
2018-10-16T09:44:12.536Z,101542.59
2018-10-16T09:45:16.604Z,101539.59
2018-10-16T09:46:20.732Z,101536.77
2018-10-16T09:47:24.837Z,101542.64
2018-10-16T09:48:28.990Z,101544.20
2018-10-16T09:49:33.085Z,101546.57
2018-10-16T09:50:37.164Z,101547.60
2018-10-16T09:51:41.333Z,101547.43
2018-10-16T09:52:45.367Z,101546.97
2018-10-16T09:53:49.368Z,101542.16
2018-10-16T09:54:53.612Z,101541.84
2018-10-16T09:55:57.974Z,101542.20
2018-10-16T09:57:02.099Z,101542.73
2018-10-16T09:58:06.502Z,101545.46
2018-10-16T09:59:10.695Z,101546.84
2018-10-16T10:00:20.288Z,101549.88
2018-10-16T10:01:29.693Z,101544.72
2018-10-16T10:02:33.859Z,101541.20
2018-10-16T10:03:37.971Z,101542.23
2018-10-16T10:04:42.143Z,101543.26
2018-10-16T10:05:46.194Z,101540.07
2018-10-16T10:06:51.290Z,101542.30
2018-10-16T10:07:55.423Z,101537.58
2018-10-16T10:08:59.475Z,101540.30
2018-10-16T10:10:03.592Z,101536.30
2018-10-16T10:11:08.024Z,101526.91
2018-10-16T10:12:12.156Z,101533.12
2018-10-16T10:13:16.251Z,101536.70
2018-10-16T10:14:20.382Z,101538.06
2018-10-16T10:15:24.429Z,101534.72
2018-10-16T10:16:28.646Z,101534.72
2018-10-16T10:17:32.680Z,101531.93
2018-10-16T10:18:37.095Z,101532.77
2018-10-16T10:19:41.238Z,101534.98
2018-10-16T10:20:45.425Z,101535.85
2018-10-16T10:21:49.690Z,101532.65
2018-10-16T10:22:53.767Z,101532.66
2018-10-16T10:23:58.063Z,101530.31
2018-10-16T10:25:02.143Z,101525.44
2018-10-16T10:26:06.322Z,101532.53
2018-10-16T10:27:10.820Z,101527.16
2018-10-16T10:28:14.947Z,101528.49
2018-10-16T10:29:19.099Z,101525.81
2018-10-16T10:30:23.953Z,101529.37
2018-10-16T10:31:28.722Z,101526.16
2018-10-16T10:32:32.828Z,101526.33
2018-10-16T10:33:36.935Z,101531.73
2018-10-16T10:34:41.057Z,101527.86
2018-10-16T10:35:45.260Z,101529.25
2018-10-16T10:36:49.898Z,101528.23
2018-10-16T10:37:54.202Z,101529.23
2018-10-16T10:38:58.356Z,101523.84
2018-10-16T10:40:02.474Z,101530.25
2018-10-16T10:41:06.835Z,101526.90
2018-10-16T10:42:10.877Z,101535.65
2018-10-16T10:43:14.977Z,101524.36
2018-10-16T10:44:19.124Z,101521.16
2018-10-16T10:45:23.242Z,101522.02
2018-10-16T10:46:27.316Z,101524.52
2018-10-16T10:47:31.483Z,101516.78
2018-10-16T10:48:35.590Z,101521.48
2018-10-16T10:49:39.751Z,101521.14
2018-10-16T10:50:44.108Z,101520.48
2018-10-16T10:51:48.478Z,101516.41
2018-10-16T10:52:52.519Z,101524.16
2018-10-16T10:53:57.540Z,101512.36
2018-10-16T10:55:01.799Z,101516.06
2018-10-16T10:56:06.472Z,101510.98
2018-10-16T10:57:10.881Z,101516.38
2018-10-16T10:58:14.807Z,101516.38
2018-10-16T10:59:19.152Z,101516.03
2018-10-16T11:00:23.194Z,101512.98
2018-10-16T11:01:27.595Z,101512.13
2018-10-16T11:02:31.707Z,101514.14
2018-10-16T11:03:36.013Z,101510.78
2018-10-16T11:04:39.961Z,101519.03
2018-10-16T11:05:44.306Z,101512.94
2018-10-16T11:06:48.450Z,101518.52
2018-10-16T11:07:52.589Z,101510.61
2018-10-16T11:08:56.708Z,101516.66
2018-10-16T11:10:00.812Z,101510.77
2018-10-16T11:11:04.971Z,101516.00
2018-10-16T11:12:09.051Z,101514.97
2018-10-16T11:13:13.067Z,101515.31
2018-10-16T11:14:17.199Z,101517.51
2018-10-16T11:15:21.381Z,101509.75
2018-10-16T11:16:25.682Z,101506.20
2018-10-16T11:17:29.722Z,101508.20
2018-10-16T11:18:33.800Z,101511.56
2018-10-16T11:19:38.068Z,101502.11
2018-10-16T11:20:42.164Z,101511.06
2018-10-16T11:21:46.391Z,101502.65
2018-10-16T11:22:50.433Z,101508.86
2018-10-16T11:23:55.030Z,101505.00
2018-10-16T11:24:59.289Z,101505.16
2018-10-16T11:26:03.316Z,101503.81
2018-10-16T11:27:07.549Z,101506.52
2018-10-16T11:28:11.582Z,101509.91
2018-10-16T11:29:15.680Z,101504.17
2018-10-16T11:30:19.879Z,101506.02
2018-10-16T11:31:23.904Z,101505.52
2018-10-16T11:32:28.028Z,101504.17
2018-10-16T11:33:32.083Z,101506.86
2018-10-16T11:34:36.880Z,101509.56
2018-10-16T11:35:40.888Z,101505.20
2018-10-16T11:36:45.042Z,101505.52
2018-10-16T11:37:49.146Z,101507.55
2018-10-16T11:38:53.296Z,101504.34
2018-10-16T11:39:57.306Z,101502.30
2018-10-16T11:41:01.644Z,101504.50
2018-10-16T11:42:05.845Z,101502.45
2018-10-16T11:43:09.937Z,101497.91
2018-10-16T11:44:14.154Z,101500.09
2018-10-16T11:45:18.312Z,101501.80
2018-10-16T11:46:22.402Z,101501.26
2018-10-16T11:47:26.513Z,101501.09
2018-10-16T11:48:30.639Z,101495.36
2018-10-16T11:49:34.764Z,101498.91
2018-10-16T11:50:38.880Z,101503.80
2018-10-16T11:51:43.243Z,101501.80
2018-10-16T11:52:47.305Z,101504.16
2018-10-16T11:53:51.469Z,101502.80
2018-10-16T11:54:55.855Z,101507.86
2018-10-16T11:55:59.971Z,101504.50
2018-10-16T11:57:03.996Z,101502.11
2018-10-16T11:58:08.189Z,101499.10
2018-10-16T11:59:12.294Z,101501.45
2018-10-16T12:00:17.870Z,101500.11
2018-10-16T12:01:22.528Z,101498.76
2018-10-16T12:02:26.571Z,101504.66
2018-10-16T12:03:30.658Z,101501.45
2018-10-16T12:04:34.867Z,101496.41
2018-10-16T12:05:38.953Z,101498.41
2018-10-16T12:06:43.091Z,101496.05
2018-10-16T12:07:47.288Z,101498.05
2018-10-16T12:08:51.582Z,101493.84
2018-10-16T12:09:55.751Z,101498.05
2018-10-16T12:10:59.979Z,101504.30
2018-10-16T12:12:04.215Z,101495.69
2018-10-16T12:13:08.298Z,101494.34
2018-10-16T12:14:12.406Z,101498.53
2018-10-16T12:15:16.438Z,101497.34
2018-10-16T12:16:23.005Z,101496.98
2018-10-16T12:17:32.002Z,101494.63